Phelps, WI (54554)

11:32 AM CST on February 12, 2016 (GMT -0600)
Misery Bay Boat Launch | | Change Station
CLOSE
Current Station
Personal Weather Station
Location: Watersmeet, MI
Elevation: 1685 ft
Nearby Weather Stations
Active Advisory: Wind Chill Advisory

Elev 1685 ft 46.16 °N, 89.12 °W | Updated 3 minutes ago

Mostly Cloudy
Mostly Cloudy
9.7 °F
Feels Like -1 °F
N
6.8
Wind Variable Wind from NW

Today
High -- | Low -- °F
--% Chance of Precip.
Yesterday
High -- | Low -- °F
Precip. -- in
Pressure 30.09 in
Visibility 1.0 miles
Clouds Mostly Cloudy 900 ft
Overcast 1900 ft
Windchill -1 °F
Dew Point -7 °F
Humidity 46%
Rainfall 0.00 in
Snow Depth Not available.
7:04 AM 5:17 PM
Waxing Crescent, 22% visible
METAR KLNL 121715Z AUTO 33021G28KT 1SM -SN BKN009 OVC019 M15/M21 A3009 RMK AO2 T11521206
Pressure 30.09 in
Visibility 1.0 miles
Clouds Mostly Cloudy 900 ft
Overcast 1900 ft
Windchill -1 °F
Dew Point -7 °F
Humidity 46%
Rainfall 0.00 in
Snow Depth Not available.
7:04 AM 5:17 PM
Waxing Crescent, 22% visible
METAR KLNL 121715Z AUTO 33021G28KT 1SM -SN BKN009 OVC019 M15/M21 A3009 RMK AO2 T11521206

10-Day Weather Forecast

Almanac

Astronomy

Feb. 12, 2016 Rise Set
Actual Time
Civil Twilight
Nautical Twilight
Astronomical Twilight
Moon
Length of Visible Light
Length of Day
Tomorrow will be .
, % of the Moon is Illuminated

Today's Extremes

State Highs State Lows

Community

WunderPhotos

Upload Photos

1,892,354 photos uploaded!

WunderBlog® & News

Nearby

Air Quality

  Air Quality AQ Index Pollutant
Not available.

Snow Depth

Station Depth Elevation

Earthquake Activity

City Distance Mag. Time & Date
Minimum magnitude displayed is 2.5.

Coastal Water Temperatures

Place Temperature

Stations

Nearby Weather Stations

Station Location Temp. Windchill Dew Point Humidity Wind Precip. Elev Updated Type
                   

Watches & Warnings

Wind Chill Advisory
Issued: 3:11 AM CST Feb. 12, 2016 – National Weather Service

... Wind Chill Advisory in effect from 6 PM this evening to 9 am
CST Saturday...

The National Weather Service in Green Bay has issued a Wind Chill
Advisory... which is in effect from 6 PM this evening to 9 am CST
Saturday.

* Wind chills will drop to 25 to 30 below zero tonight and early
Saturday.

* The cold wind chills will cause frostbite on exposed skin in as
little as 20 minutes.

Precautionary/preparedness actions...

A Wind Chill Advisory means that cold air and the wind will
combine to generate low wind chills. Frostbite and hypothermia
can occur if precautions are not taken. Make sure you wear a hat
and gloves.